createdAt,value
2019-01-06T00:01:33.385Z,33.58
2019-01-06T00:04:27.585Z,31.48
2019-01-06T00:07:14.637Z,34.35
2019-01-06T00:10:01.825Z,31.30
2019-01-06T00:13:05.513Z,26.75
2019-01-06T00:15:52.317Z,27.37
2019-01-06T00:18:43.760Z,28.02
2019-01-06T00:21:44.300Z,31.33
2019-01-06T00:24:33.326Z,26.10
2019-01-06T00:27:27.435Z,21.90
2019-01-06T00:30:14.717Z,19.87
2019-01-06T00:33:15.543Z,20.10
2019-01-06T00:36:06.549Z,21.05
2019-01-06T00:38:44.150Z,17.27
2019-01-06T00:41:31.181Z,19.35
2019-01-06T00:44:19.409Z,16.45
2019-01-06T00:47:11.273Z,15.88
2019-01-06T00:49:59.483Z,14.98
2019-01-06T00:53:06.325Z,15.10
2019-01-06T00:55:53.695Z,15.25
2019-01-06T00:58:41.953Z,15.72
2019-01-06T01:01:30.205Z,14.05
2019-01-06T01:04:24.378Z,13.28
2019-01-06T01:07:12.634Z,12.90
2019-01-06T01:09:59.579Z,13.85
2019-01-06T01:12:56.727Z,13.98
2019-01-06T01:15:47.755Z,13.93
2019-01-06T01:18:42.961Z,14.15
2019-01-06T01:21:40.339Z,14.07
2019-01-06T01:24:27.556Z,13.95
2019-01-06T01:27:28.168Z,14.78
2019-01-06T01:30:19.386Z,13.85
2019-01-06T01:33:10.585Z,14.47
2019-01-06T01:36:04.968Z,15.80
2019-01-06T01:38:59.461Z,16.90
2019-01-06T01:41:47.758Z,16.32
2019-01-06T01:44:51.743Z,17.17
2019-01-06T01:47:38.921Z,18.90
2019-01-06T01:50:27.175Z,20.12
2019-01-06T01:53:14.361Z,20.97
2019-01-06T01:56:02.652Z,21.70
2019-01-06T01:58:53.967Z,26.33
2019-01-06T02:02:00.497Z,25.65
2019-01-06T02:04:47.397Z,29.23
2019-01-06T02:07:34.258Z,25.88
2019-01-06T02:10:22.506Z,28.92
2019-01-06T02:13:09.380Z,31.42
2019-01-06T02:15:59.128Z,25.72
2019-01-06T02:18:53.418Z,25.17
2019-01-06T02:21:40.567Z,25.37
2019-01-06T02:24:35.026Z,23.42
2019-01-06T02:27:29.107Z,21.82
2019-01-06T02:30:16.008Z,21.93
2019-01-06T02:33:16.552Z,23.52
2019-01-06T02:36:14.129Z,21.90
2019-01-06T02:39:01.045Z,22.67
2019-01-06T02:41:43.787Z,23.10
2019-01-06T02:44:43.734Z,21.57
2019-01-06T02:47:47.157Z,22.98
2019-01-06T02:50:34.028Z,22.20
2019-01-06T02:53:25.388Z,21.68
2019-01-06T02:56:22.676Z,21.85
2019-01-06T02:59:10.925Z,22.35
2019-01-06T03:01:58.053Z,22.37
2019-01-06T03:04:55.161Z,21.85
2019-01-06T03:07:42.336Z,24.70
2019-01-06T03:10:30.591Z,20.85
2019-01-06T03:13:17.760Z,23.45
2019-01-06T03:16:04.925Z,21.37
2019-01-06T03:18:56.310Z,18.82
2019-01-06T03:21:43.336Z,17.90
2019-01-06T03:24:37.622Z,17.23
2019-01-06T03:27:34.930Z,16.97
2019-01-06T03:30:26.538Z,17.25
2019-01-06T03:33:13.382Z,17.15
2019-01-06T03:36:01.686Z,16.65
2019-01-06T03:38:51.682Z,18.77
2019-01-06T03:41:52.311Z,18.52
2019-01-06T03:44:46.414Z,17.52
2019-01-06T03:47:52.933Z,17.95
2019-01-06T03:50:39.773Z,18.37
2019-01-06T03:53:43.175Z,23.30
2019-01-06T03:56:30.333Z,22.45
2019-01-06T03:59:24.714Z,21.80
2019-01-06T04:02:13.005Z,22.52
2019-01-06T04:04:53.548Z,28.52
2019-01-06T04:07:53.907Z,29.67
2019-01-06T04:10:41.194Z,29.07
2019-01-06T04:13:28.338Z,28.07
2019-01-06T04:16:32.082Z,23.95
2019-01-06T04:19:20.333Z,30.52
2019-01-06T04:22:07.782Z,28.27
2019-01-06T04:24:59.072Z,28.17
2019-01-06T04:27:50.411Z,20.02
2019-01-06T04:30:50.865Z,20.32
2019-01-06T04:33:48.788Z,20.75
2019-01-06T04:36:35.619Z,20.50
2019-01-06T04:39:43.934Z,21.45
2019-01-06T04:42:40.242Z,21.25
2019-01-06T04:45:28.484Z,22.22
2019-01-06T04:48:22.518Z,21.87
2019-01-06T04:51:16.845Z,20.88
2019-01-06T04:54:08.107Z,23.18
2019-01-06T04:57:08.712Z,22.22
2019-01-06T04:59:56.034Z,21.73
2019-01-06T05:02:59.957Z,21.52
2019-01-06T05:05:47.214Z,22.27
2019-01-06T05:08:34.223Z,19.92
2019-01-06T05:11:40.805Z,19.32
2019-01-06T05:14:28.549Z,19.65
2019-01-06T05:17:35.331Z,21.25
2019-01-06T05:20:22.433Z,19.42
2019-01-06T05:23:12.972Z,21.27
2019-01-06T05:26:19.403Z,20.00
2019-01-06T05:29:16.898Z,18.62
2019-01-06T05:32:08.942Z,19.45
2019-01-06T05:34:57.213Z,19.67
2019-01-06T05:37:44.415Z,19.42
2019-01-06T05:40:35.696Z,19.27
2019-01-06T05:43:35.794Z,18.35
2019-01-06T05:46:26.831Z,18.00
2019-01-06T05:49:21.272Z,19.02
2019-01-06T05:52:21.580Z,17.52
2019-01-06T05:55:08.726Z,16.35
2019-01-06T05:57:51.860Z,17.42
2019-01-06T06:00:47.044Z,17.65
2019-01-06T06:03:47.452Z,17.37
2019-01-06T06:06:50.851Z,19.05
2019-01-06T06:09:47.566Z,17.80
2019-01-06T06:12:35.796Z,16.57
2019-01-06T06:15:36.400Z,18.02
2019-01-06T06:18:43.080Z,16.55
2019-01-06T06:21:33.945Z,16.65
2019-01-06T06:24:23.268Z,18.95
2019-01-06T06:27:10.458Z,18.23
2019-01-06T06:30:06.305Z,17.80
2019-01-06T06:32:53.467Z,18.00
2019-01-06T06:35:50.990Z,18.35
2019-01-06T06:38:38.284Z,18.40
2019-01-06T06:41:30.802Z,18.90
2019-01-06T06:44:25.141Z,18.30
2019-01-06T06:47:12.121Z,19.65
2019-01-06T06:50:18.622Z,18.50
2019-01-06T06:53:16.277Z,17.20
2019-01-06T06:56:10.718Z,15.50
2019-01-06T06:58:58.981Z,14.80
2019-01-06T07:02:36.510Z,13.40
2019-01-06T07:05:34.413Z,10.93
2019-01-06T07:08:21.341Z,11.70
2019-01-06T07:11:15.525Z,9.90
2019-01-06T07:14:03.673Z,8.90
2019-01-06T07:17:28.165Z,8.58
2019-01-06T07:20:16.390Z,7.62
2019-01-06T07:23:11.029Z,7.25
2019-01-06T07:25:58.411Z,7.85
2019-01-06T07:28:46.657Z,7.25
2019-01-06T07:31:37.747Z,7.92
2019-01-06T07:34:24.257Z,7.58
2019-01-06T07:37:11.545Z,7.60
2019-01-06T07:40:08.884Z,8.28
2019-01-06T07:42:57.084Z,7.95
2019-01-06T07:45:50.953Z,6.53
2019-01-06T07:48:38.801Z,9.05
2019-01-06T07:51:27.055Z,7.65
2019-01-06T07:54:27.469Z,6.87
2019-01-06T07:57:14.654Z,8.50
2019-01-06T08:00:01.595Z,6.20
2019-01-06T08:02:58.731Z,6.55
2019-01-06T08:05:53.046Z,6.75
2019-01-06T08:08:56.749Z,7.37
2019-01-06T08:11:48.687Z,10.30
2019-01-06T08:14:55.118Z,9.18
2019-01-06T08:17:42.032Z,10.72
2019-01-06T08:20:29.097Z,9.83
2019-01-06T08:23:21.939Z,8.40
2019-01-06T08:26:19.357Z,7.37
2019-01-06T08:29:22.992Z,6.78
2019-01-06T08:32:12.492Z,6.22
2019-01-06T08:34:59.742Z,6.53
2019-01-06T08:37:51.018Z,7.83
2019-01-06T08:40:38.003Z,7.50
2019-01-06T08:43:23.516Z,6.80
2019-01-06T08:46:10.602Z,7.67
2019-01-06T08:49:07.982Z,6.92
2019-01-06T08:52:07.359Z,8.55
2019-01-06T08:54:50.081Z,5.87
2019-01-06T08:57:38.335Z,8.18
2019-01-06T09:00:33.434Z,12.40
2019-01-06T09:03:21.695Z,7.92
2019-01-06T09:06:18.982Z,9.08
2019-01-06T09:09:07.247Z,9.48
2019-01-06T09:11:54.369Z,8.70
2019-01-06T09:14:41.954Z,7.87
2019-01-06T09:17:43.165Z,8.08
2019-01-06T09:20:32.395Z,6.92
2019-01-06T09:23:26.603Z,7.47
2019-01-06T09:26:13.529Z,8.55
2019-01-06T09:29:14.147Z,7.87
2019-01-06T09:32:02.542Z,8.38
2019-01-06T09:34:49.634Z,7.33
2019-01-06T09:37:40.793Z,8.03
2019-01-06T09:40:27.890Z,7.35
2019-01-06T09:43:21.921Z,8.25
2019-01-06T09:46:21.424Z,9.35
2019-01-06T09:49:24.909Z,8.98
2019-01-06T09:52:12.022Z,8.53
2019-01-06T09:55:06.099Z,9.45
2019-01-06T09:57:54.546Z,8.85
2019-01-06T10:00:41.885Z,9.68
2019-01-06T10:03:29.252Z,10.13
2019-01-06T10:06:27.024Z,12.65
2019-01-06T10:09:21.365Z,9.45
2019-01-06T10:12:18.839Z,8.80
2019-01-06T10:15:05.836Z,9.18
2019-01-06T10:17:53.443Z,8.00
2019-01-06T10:21:00.233Z,9.25
2019-01-06T10:23:48.533Z,7.95
2019-01-06T10:26:36.971Z,9.05
2019-01-06T10:29:25.269Z,8.73
2019-01-06T10:32:31.749Z,9.45
2019-01-06T10:35:32.177Z,9.23
2019-01-06T10:38:24.249Z,11.30
2019-01-06T10:41:11.078Z,8.85
2019-01-06T10:44:03.447Z,7.92
2019-01-06T10:46:54.776Z,8.20
2019-01-06T10:49:42.094Z,9.43
2019-01-06T10:52:49.948Z,9.03
2019-01-06T10:55:36.610Z,9.03
2019-01-06T10:58:23.263Z,9.98
2019-01-06T11:01:17.525Z,10.38
2019-01-06T11:04:04.730Z,9.70
2019-01-06T11:06:51.940Z,9.08
2019-01-06T11:09:52.602Z,10.15
2019-01-06T11:12:39.033Z,10.32
2019-01-06T11:15:27.646Z,8.93
2019-01-06T11:18:15.913Z,9.18
2019-01-06T11:21:04.250Z,9.38
2019-01-06T11:23:51.370Z,10.72
2019-01-06T11:26:39.678Z,10.03
2019-01-06T11:29:32.804Z,11.12
2019-01-06T11:32:36.468Z,10.23
2019-01-06T11:35:36.990Z,9.28
2019-01-06T11:38:24.420Z,8.13
2019-01-06T11:41:18.937Z,9.58
2019-01-06T11:44:05.903Z,7.62
2019-01-06T11:47:06.226Z,7.85
2019-01-06T11:50:03.634Z,10.20
2019-01-06T11:52:52.967Z,11.20
2019-01-06T11:55:47.183Z,9.25
2019-01-06T11:58:38.963Z,9.88
2019-01-06T12:01:25.927Z,8.78
2019-01-06T12:04:14.178Z,8.65
2019-01-06T12:07:01.559Z,7.95
2019-01-06T12:09:53.052Z,8.85
2019-01-06T12:12:56.531Z,8.70
2019-01-06T12:15:50.782Z,8.60
2019-01-06T12:18:51.574Z,11.38
2019-01-06T12:21:42.983Z,9.05
2019-01-06T12:24:54.342Z,9.70
2019-01-06T12:27:42.194Z,9.63
2019-01-06T12:30:30.507Z,9.27
2019-01-06T12:33:17.336Z,8.70
2019-01-06T12:36:24.321Z,7.80
2019-01-06T12:39:28.004Z,8.20
2019-01-06T12:42:16.302Z,8.05
2019-01-06T12:45:07.580Z,9.50
2019-01-06T12:47:54.759Z,8.33
2019-01-06T12:50:52.177Z,9.58
2019-01-06T12:53:40.563Z,9.80
2019-01-06T12:56:31.197Z,10.88
2019-01-06T12:59:18.365Z,11.12
2019-01-06T13:02:06.644Z,8.75
2019-01-06T13:04:57.828Z,7.90
2019-01-06T13:07:46.300Z,7.70
2019-01-06T13:10:33.425Z,8.13
2019-01-06T13:13:20.427Z,8.18
2019-01-06T13:16:07.332Z,8.73
2019-01-06T13:19:10.715Z,8.37
2019-01-06T13:22:07.784Z,9.10
2019-01-06T13:24:56.752Z,7.85
2019-01-06T13:27:57.179Z,9.03
2019-01-06T13:30:38.645Z,7.72
2019-01-06T13:33:36.428Z,8.10
2019-01-06T13:36:26.296Z,7.33
2019-01-06T13:39:20.388Z,7.97
2019-01-06T13:42:18.148Z,7.20
2019-01-06T13:45:22.269Z,7.00
2019-01-06T13:48:22.886Z,7.57
2019-01-06T13:51:29.588Z,9.17
2019-01-06T13:54:16.460Z,9.13
2019-01-06T13:57:03.768Z,9.77
2019-01-06T13:59:50.986Z,12.57
2019-01-06T14:02:37.863Z,12.40
2019-01-06T14:05:25.147Z,13.60
2019-01-06T14:08:15.453Z,13.67
2019-01-06T14:11:09.700Z,13.87
2019-01-06T14:14:06.991Z,14.23
2019-01-06T14:16:55.359Z,13.77
2019-01-06T14:19:42.434Z,10.90
2019-01-06T14:22:27.917Z,9.07
2019-01-06T14:25:25.196Z,9.53
2019-01-06T14:28:31.518Z,8.77
2019-01-06T14:31:18.425Z,9.03
2019-01-06T14:34:18.886Z,10.60
2019-01-06T14:37:10.240Z,8.13
2019-01-06T14:39:57.411Z,8.17
2019-01-06T14:42:44.296Z,8.67
2019-01-06T14:45:38.821Z,7.60
2019-01-06T14:48:31.152Z,8.47
2019-01-06T14:51:22.465Z,9.40
2019-01-06T14:54:09.632Z,8.57
2019-01-06T14:56:56.581Z,8.83
2019-01-06T14:59:52.012Z,11.10
2019-01-06T15:02:46.388Z,12.57
2019-01-06T15:05:41.669Z,10.27
2019-01-06T15:08:29.899Z,10.47
2019-01-06T15:11:18.175Z,10.37
2019-01-06T15:14:18.621Z,11.55
2019-01-06T15:17:05.554Z,9.27
2019-01-06T15:20:03.100Z,7.92
2019-01-06T15:22:48.950Z,7.78
2019-01-06T15:25:49.381Z,10.20
2019-01-06T15:28:46.807Z,9.20
2019-01-06T15:31:38.092Z,10.53
2019-01-06T15:34:25.049Z,8.70
2019-01-06T15:37:19.097Z,7.85
2019-01-06T15:40:16.995Z,9.63
2019-01-06T15:43:23.843Z,8.75
2019-01-06T15:46:11.200Z,9.15
2019-01-06T15:48:59.460Z,8.63
2019-01-06T15:51:46.588Z,10.58
2019-01-06T15:54:40.940Z,9.33
2019-01-06T15:57:29.187Z,11.68
2019-01-06T16:00:17.029Z,10.82
2019-01-06T16:03:08.154Z,13.00
2019-01-06T16:05:56.421Z,12.60
2019-01-06T16:08:54.663Z,13.45
2019-01-06T16:11:40.444Z,12.82
2019-01-06T16:14:28.703Z,12.50
2019-01-06T16:17:35.481Z,11.12
2019-01-06T16:20:22.300Z,8.80
2019-01-06T16:23:17.089Z,11.53
2019-01-06T16:26:11.490Z,9.68
2019-01-06T16:28:55.647Z,9.15
2019-01-06T16:31:52.151Z,8.85
2019-01-06T16:34:40.820Z,9.73
2019-01-06T16:37:29.111Z,9.38
2019-01-06T16:40:26.478Z,9.33
2019-01-06T16:43:24.804Z,10.13
2019-01-06T16:46:27.030Z,9.25
2019-01-06T16:49:13.231Z,10.88
2019-01-06T16:52:01.438Z,10.15
2019-01-06T16:54:48.600Z,8.83
2019-01-06T16:57:39.225Z,11.00
2019-01-06T17:00:42.699Z,14.00
2019-01-06T17:03:34.089Z,9.98
2019-01-06T17:06:21.367Z,10.53
2019-01-06T17:09:18.630Z,11.73
2019-01-06T17:12:10.011Z,10.20
2019-01-06T17:14:57.624Z,10.78
2019-01-06T17:17:58.204Z,10.65
2019-01-06T17:20:55.528Z,9.85
2019-01-06T17:23:55.789Z,9.95
2019-01-06T17:26:47.099Z,11.55
2019-01-06T17:29:31.749Z,12.05
2019-01-06T17:32:18.971Z,12.85
2019-01-06T17:35:06.182Z,13.48
2019-01-06T17:37:57.421Z,13.18
2019-01-06T17:40:44.700Z,12.88
2019-01-06T17:43:32.362Z,13.25
2019-01-06T17:46:19.313Z,10.50
2019-01-06T17:49:34.297Z,11.80
2019-01-06T17:52:21.269Z,9.73
2019-01-06T17:55:18.951Z,12.03
2019-01-06T17:58:11.824Z,15.45
2019-01-06T18:01:15.500Z,12.45
2019-01-06T18:04:03.799Z,12.65
2019-01-06T18:06:51.844Z,14.20
2019-01-06T18:09:40.830Z,13.03
2019-01-06T18:12:27.931Z,12.43
2019-01-06T18:15:14.867Z,13.35
2019-01-06T18:18:12.600Z,11.90
2019-01-06T18:21:09.963Z,10.05
2019-01-06T18:24:03.268Z,10.23
2019-01-06T18:27:00.852Z,9.75
2019-01-06T18:29:46.343Z,10.00
2019-01-06T18:32:35.007Z,8.93
2019-01-06T18:35:32.445Z,9.75
2019-01-06T18:38:27.956Z,10.32
2019-01-06T18:41:12.780Z,10.03
2019-01-06T18:44:13.533Z,8.25
2019-01-06T18:47:02.770Z,8.40
2019-01-06T18:49:53.902Z,9.00
2019-01-06T18:52:41.999Z,8.63
2019-01-06T18:55:30.262Z,8.80
2019-01-06T18:58:34.014Z,8.75
2019-01-06T19:01:21.218Z,10.50
2019-01-06T19:04:08.500Z,10.80
2019-01-06T19:07:02.838Z,9.40
2019-01-06T19:09:47.522Z,11.22
2019-01-06T19:12:38.528Z,8.08
2019-01-06T19:15:21.066Z,8.15
2019-01-06T19:18:08.388Z,8.35
2019-01-06T19:20:55.441Z,7.72
2019-01-06T19:23:42.372Z,7.10
2019-01-06T19:26:41.006Z,7.30
2019-01-06T19:29:35.065Z,8.93
2019-01-06T19:32:32.539Z,7.40
2019-01-06T19:35:19.498Z,7.67
2019-01-06T19:38:10.015Z,6.97
2019-01-06T19:40:57.353Z,6.08
2019-01-06T19:43:42.880Z,7.00
2019-01-06T19:46:34.484Z,7.37
2019-01-06T19:49:28.766Z,6.75
2019-01-06T19:52:27.402Z,7.20
2019-01-06T19:55:31.158Z,7.95
2019-01-06T19:58:21.776Z,7.05
2019-01-06T20:01:25.030Z,7.22
2019-01-06T20:04:19.353Z,8.03
2019-01-06T20:07:08.125Z,8.63
2019-01-06T20:10:00.757Z,7.62
2019-01-06T20:12:58.049Z,8.23
2019-01-06T20:15:45.260Z,7.50
2019-01-06T20:18:48.906Z,6.87
2019-01-06T20:21:34.945Z,8.15
2019-01-06T20:24:23.256Z,7.90
2019-01-06T20:27:16.133Z,6.97
2019-01-06T20:30:09.122Z,7.97
2019-01-06T20:33:04.374Z,7.50
2019-01-06T20:35:58.454Z,7.08
2019-01-06T20:38:55.980Z,6.90
2019-01-06T20:41:46.956Z,7.05
2019-01-06T20:44:34.351Z,8.70
2019-01-06T20:47:37.955Z,7.90
2019-01-06T20:50:35.525Z,6.85
2019-01-06T20:53:38.878Z,6.78
2019-01-06T20:56:42.950Z,7.15
2019-01-06T20:59:33.747Z,6.90
2019-01-06T21:02:34.041Z,6.37
2019-01-06T21:05:25.121Z,6.95
2019-01-06T21:08:26.790Z,6.05
2019-01-06T21:11:09.143Z,5.95
2019-01-06T21:13:56.293Z,5.75
2019-01-06T21:16:43.486Z,5.90
2019-01-06T21:19:37.751Z,5.85
2019-01-06T21:22:29.066Z,5.80
2019-01-06T21:25:16.480Z,6.50
2019-01-06T21:28:02.403Z,6.78
2019-01-06T21:30:59.821Z,6.12
2019-01-06T21:33:49.262Z,5.22
2019-01-06T21:36:56.219Z,5.78
2019-01-06T21:39:42.970Z,6.28
2019-01-06T21:42:26.349Z,5.50
2019-01-06T21:45:08.321Z,7.05
2019-01-06T21:47:56.563Z,5.58
2019-01-06T21:50:43.772Z,4.95
2019-01-06T21:53:24.602Z,5.12
2019-01-06T21:56:22.223Z,5.50
2019-01-06T21:59:09.227Z,5.72
2019-01-06T22:01:51.321Z,6.03
2019-01-06T22:04:48.647Z,6.92
2019-01-06T22:07:36.887Z,6.75
2019-01-06T22:10:24.215Z,6.65
2019-01-06T22:13:30.994Z,6.08
2019-01-06T22:16:18.052Z,6.78
2019-01-06T22:19:06.357Z,6.35
2019-01-06T22:22:13.021Z,6.97
2019-01-06T22:25:13.330Z,5.37
2019-01-06T22:28:05.209Z,6.20
2019-01-06T22:30:59.469Z,6.00
2019-01-06T22:33:53.865Z,5.95
2019-01-06T22:36:40.746Z,6.12
2019-01-06T22:39:38.021Z,5.62
2019-01-06T22:42:29.368Z,6.50
2019-01-06T22:45:14.372Z,5.35
2019-01-06T22:48:18.158Z,6.62
2019-01-06T22:51:20.708Z,6.70
2019-01-06T22:54:20.982Z,5.70
2019-01-06T22:57:08.030Z,5.85
2019-01-06T22:59:55.054Z,6.42
2019-01-06T23:02:42.281Z,5.75
2019-01-06T23:05:32.727Z,6.17
2019-01-06T23:08:33.446Z,7.20
2019-01-06T23:11:27.600Z,6.97
2019-01-06T23:14:27.896Z,5.75
2019-01-06T23:17:24.647Z,5.85
2019-01-06T23:20:07.534Z,5.30
2019-01-06T23:23:14.187Z,5.37
2019-01-06T23:26:02.146Z,6.00
2019-01-06T23:28:43.881Z,6.62
2019-01-06T23:31:41.477Z,6.10
2019-01-06T23:34:32.727Z,5.78
2019-01-06T23:37:18.815Z,5.80
2019-01-06T23:40:22.911Z,5.65
2019-01-06T23:43:13.923Z,6.28
2019-01-06T23:46:02.178Z,5.17
2019-01-06T23:48:49.396Z,5.55
2019-01-06T23:51:55.915Z,5.78
2019-01-06T23:54:56.215Z,5.37
2019-01-06T23:57:56.617Z,6.00
